createdAt,value
2018-09-05T00:02:12.283Z,48.23
2018-09-05T00:04:40.940Z,48.40
2018-09-05T00:07:09.652Z,47.60
2018-09-05T00:09:38.341Z,56.07
2018-09-05T00:12:07.051Z,47.67
2018-09-05T00:14:35.815Z,52.60
2018-09-05T00:17:04.510Z,49.23
2018-09-05T00:19:33.173Z,44.97
2018-09-05T00:22:01.371Z,44.33
2018-09-05T00:24:30.013Z,49.13
2018-09-05T00:26:59.199Z,50.63
2018-09-05T00:29:27.874Z,51.37
2018-09-05T00:31:56.621Z,47.90
2018-09-05T00:34:25.379Z,48.13
2018-09-05T00:36:54.033Z,48.40
2018-09-05T00:39:22.639Z,48.67
2018-09-05T00:41:51.259Z,47.83
2018-09-05T00:44:19.990Z,46.73
2018-09-05T00:46:48.679Z,53.03
2018-09-05T00:49:17.668Z,50.67
2018-09-05T00:51:46.331Z,46.83
2018-09-05T00:54:14.979Z,47.63
2018-09-05T00:56:43.616Z,47.37
2018-09-05T00:59:12.259Z,46.80
2018-09-05T01:01:40.885Z,53.03
2018-09-05T01:04:09.519Z,59.83
2018-09-05T01:06:38.112Z,55.87
2018-09-05T01:09:08.217Z,54.83
2018-09-05T01:11:36.881Z,55.10
2018-09-05T01:14:05.607Z,53.43
2018-09-05T01:16:34.257Z,53.53
2018-09-05T01:19:02.908Z,54.07
2018-09-05T01:21:31.638Z,58.97
2018-09-05T01:24:00.333Z,60.03
2018-09-05T01:26:28.967Z,61.83
2018-09-05T01:28:57.596Z,57.17
2018-09-05T01:31:26.233Z,60.17
2018-09-05T01:33:54.982Z,67.80
2018-09-05T01:36:23.626Z,61.47
2018-09-05T01:38:52.263Z,63.00
2018-09-05T01:41:21.192Z,60.37
2018-09-05T01:43:49.840Z,61.33
2018-09-05T01:46:18.495Z,61.77
2018-09-05T01:48:47.139Z,64.73
2018-09-05T01:51:45.667Z,66.90
2018-09-05T01:54:16.189Z,65.03
2018-09-05T01:56:45.014Z,67.43
2018-09-05T01:59:13.780Z,69.60
2018-09-05T02:01:42.378Z,67.87
2018-09-05T02:04:11.316Z,65.40
2018-09-05T02:06:39.929Z,69.63
2018-09-05T02:09:10.538Z,66.27
2018-09-05T02:11:39.183Z,68.27
2018-09-05T02:14:07.812Z,67.27
2018-09-05T02:16:36.583Z,67.93
2018-09-05T02:19:05.264Z,74.33
2018-09-05T02:21:34.174Z,70.53
2018-09-05T02:24:03.125Z,70.73
2018-09-05T02:26:31.791Z,71.07
2018-09-05T02:29:00.429Z,70.67
2018-09-05T02:31:29.374Z,65.33
2018-09-05T02:33:58.031Z,67.17
2018-09-05T02:36:26.709Z,61.83
2018-09-05T02:38:55.380Z,66.20
2018-09-05T02:41:24.102Z,65.30
2018-09-05T02:43:57.994Z,62.70
2018-09-05T02:46:26.675Z,64.67
2018-09-05T02:48:55.299Z,64.03
2018-09-05T02:51:23.921Z,62.30
2018-09-05T02:53:52.604Z,64.53
2018-09-05T02:56:23.653Z,59.80
2018-09-05T02:58:52.581Z,61.63
2018-09-05T03:01:21.219Z,61.13
2018-09-05T03:03:49.845Z,59.13
2018-09-05T03:06:18.769Z,58.50
2018-09-05T03:08:47.505Z,55.03
2018-09-05T03:11:16.176Z,59.23
2018-09-05T03:13:45.021Z,62.13
2018-09-05T03:16:13.657Z,60.17
2018-09-05T03:18:42.292Z,59.47
2018-09-05T03:21:10.968Z,58.17
2018-09-05T03:23:39.629Z,61.47
2018-09-05T03:26:08.282Z,63.63
2018-09-05T03:28:37.237Z,65.90
2018-09-05T03:31:06.293Z,65.63
2018-09-05T03:33:35.001Z,64.80
2018-09-05T03:36:03.647Z,66.70
2018-09-05T03:38:32.319Z,61.83
2018-09-05T03:41:00.945Z,63.80
2018-09-05T03:43:29.609Z,66.30
2018-09-05T03:45:58.208Z,62.53
2018-09-05T03:48:26.830Z,61.80
2018-09-05T03:50:56.819Z,61.63
2018-09-05T03:53:26.954Z,59.27
2018-09-05T03:55:56.368Z,62.27
2018-09-05T03:58:25.060Z,59.47
2018-09-05T04:00:53.687Z,56.23
2018-09-05T04:03:22.288Z,57.60
2018-09-05T04:05:50.959Z,60.40
2018-09-05T04:08:19.589Z,52.20
2018-09-05T04:10:48.210Z,59.13
2018-09-05T04:13:16.855Z,56.97
2018-09-05T04:15:45.561Z,56.10
2018-09-05T04:18:14.179Z,58.30
2018-09-05T04:20:43.135Z,57.30
2018-09-05T04:23:11.759Z,59.73
2018-09-05T04:25:40.429Z,56.63
2018-09-05T04:28:09.063Z,54.07
2018-09-05T04:30:37.709Z,56.80
2018-09-05T04:33:06.374Z,59.90
2018-09-05T04:35:35.036Z,55.90
2018-09-05T04:38:03.640Z,62.53
2018-09-05T04:40:32.261Z,55.30
2018-09-05T04:43:00.905Z,56.67
2018-09-05T04:45:30.322Z,58.03
2018-09-05T04:47:58.932Z,56.80
2018-09-05T04:50:27.645Z,52.03
2018-09-05T04:52:56.284Z,58.87
2018-09-05T04:55:24.901Z,59.77
2018-09-05T04:57:53.534Z,61.67
2018-09-05T05:00:22.228Z,56.67
2018-09-05T05:02:50.942Z,60.93
2018-09-05T05:05:19.597Z,56.70
2018-09-05T05:07:49.352Z,58.00
2018-09-05T05:10:20.275Z,56.43
2018-09-05T05:12:48.881Z,58.63
2018-09-05T05:15:17.677Z,56.73
2018-09-05T05:17:46.293Z,50.67
2018-09-05T05:20:14.918Z,50.80
2018-09-05T05:22:43.572Z,52.97
2018-09-05T05:25:12.597Z,47.53
2018-09-05T05:27:41.245Z,48.63
2018-09-05T05:30:09.889Z,53.97
2018-09-05T05:32:38.544Z,48.00
2018-09-05T05:35:07.194Z,51.80
2018-09-05T05:37:35.934Z,45.90
2018-09-05T05:40:07.272Z,46.00
2018-09-05T05:42:37.010Z,50.57
2018-09-05T05:45:06.325Z,45.97
2018-09-05T05:47:35.289Z,42.97
2018-09-05T05:50:04.346Z,44.93
2018-09-05T05:52:33.480Z,43.20
2018-09-05T05:55:03.014Z,44.10
2018-09-05T05:57:31.995Z,43.87
2018-09-05T06:00:00.604Z,40.70
2018-09-05T06:02:29.281Z,40.63
2018-09-05T06:04:58.004Z,40.83
2018-09-05T06:07:26.751Z,38.50
2018-09-05T06:09:55.348Z,40.63
2018-09-05T06:12:24.274Z,35.83
2018-09-05T06:14:53.179Z,38.87
2018-09-05T06:17:21.901Z,38.10
2018-09-05T06:19:50.590Z,33.60
2018-09-05T06:22:19.272Z,34.63
2018-09-05T06:24:48.083Z,33.93
2018-09-05T06:27:16.724Z,34.37
2018-09-05T06:29:45.403Z,30.57
2018-09-05T06:32:14.032Z,32.03
2018-09-05T06:34:42.730Z,31.77
2018-09-05T06:37:11.494Z,30.47
2018-09-05T06:39:42.351Z,28.97
2018-09-05T06:42:11.042Z,28.00
2018-09-05T06:44:39.658Z,27.27
2018-09-05T06:47:08.307Z,25.10
2018-09-05T06:49:36.978Z,28.77
2018-09-05T06:52:05.633Z,28.23
2018-09-05T06:54:34.248Z,28.70
2018-09-05T06:57:03.052Z,22.90
2018-09-05T06:59:31.632Z,25.87
2018-09-05T07:02:00.382Z,24.80
2018-09-05T07:04:29.111Z,22.33
2018-09-05T07:06:57.825Z,22.90
2018-09-05T07:09:26.742Z,20.40
2018-09-05T07:11:55.446Z,20.67
2018-09-05T07:14:24.202Z,23.40
2018-09-05T07:16:53.006Z,20.00
2018-09-05T07:19:21.722Z,22.83
2018-09-05T07:21:50.492Z,21.23
2018-09-05T07:24:19.170Z,22.60
2018-09-05T07:26:47.957Z,21.00
2018-09-05T07:29:16.609Z,22.30
2018-09-05T07:31:45.271Z,19.60
2018-09-05T07:34:13.919Z,18.87
2018-09-05T07:36:42.607Z,19.07
2018-09-05T07:39:11.560Z,17.73
2018-09-05T07:41:40.808Z,17.80
2018-09-05T07:44:09.506Z,16.10
2018-09-05T07:46:38.239Z,20.07
2018-09-05T07:49:07.236Z,16.80
2018-09-05T07:51:35.977Z,16.87
2018-09-05T07:54:04.682Z,15.33
2018-09-05T07:56:33.484Z,17.27
2018-09-05T07:59:02.220Z,14.53
2018-09-05T08:01:31.057Z,18.00
2018-09-05T08:04:00.022Z,16.67
2018-09-05T08:06:28.676Z,13.90
2018-09-05T08:08:57.355Z,15.73
2018-09-05T08:11:25.972Z,16.23
2018-09-05T08:13:54.655Z,14.43
2018-09-05T08:16:23.524Z,16.73
2018-09-05T08:18:52.207Z,15.20
2018-09-05T08:21:20.861Z,13.97
2018-09-05T08:23:49.520Z,14.63
2018-09-05T08:26:18.226Z,16.20
2018-09-05T08:28:46.826Z,15.73
2018-09-05T08:31:15.479Z,14.73
2018-09-05T08:33:44.213Z,13.40
2018-09-05T08:36:13.132Z,17.47
2018-09-05T08:38:41.836Z,12.83
2018-09-05T08:41:11.733Z,13.97
2018-09-05T08:43:41.502Z,14.23
2018-09-05T08:46:10.268Z,11.43
2018-09-05T08:48:39.177Z,11.10
2018-09-05T08:51:07.762Z,10.80
2018-09-05T08:53:36.410Z,13.73
2018-09-05T08:56:05.148Z,13.80
2018-09-05T08:58:33.782Z,16.17
2018-09-05T09:01:02.869Z,20.57
2018-09-05T09:03:31.529Z,16.07
2018-09-05T09:06:00.211Z,14.67
2018-09-05T09:08:29.106Z,15.83
2018-09-05T09:10:57.733Z,11.50
2018-09-05T09:13:26.369Z,13.00
2018-09-05T09:15:55.172Z,13.60
2018-09-05T09:18:24.167Z,13.70
2018-09-05T09:20:54.283Z,13.33
2018-09-05T09:23:23.052Z,14.83
2018-09-05T09:25:51.742Z,14.07
2018-09-05T09:28:20.373Z,11.00
2018-09-05T09:30:49.060Z,15.73
2018-09-05T09:33:17.706Z,10.80
2018-09-05T09:35:47.261Z,7.23
2018-09-05T09:38:15.951Z,10.67
2018-09-05T09:40:44.911Z,11.03
2018-09-05T09:43:13.597Z,12.43
2018-09-05T09:45:42.568Z,7.00
2018-09-05T09:48:11.205Z,7.97
2018-09-05T09:50:40.978Z,9.67
2018-09-05T09:53:09.656Z,7.43
2018-09-05T09:55:38.344Z,10.27
2018-09-05T09:58:06.994Z,8.50
2018-09-05T10:00:40.869Z,7.87
2018-09-05T10:04:14.409Z,11.40
2018-09-05T10:06:47.243Z,6.60
2018-09-05T10:09:21.176Z,7.13
2018-09-05T10:11:54.984Z,8.67
2018-09-05T10:14:28.752Z,7.77
2018-09-05T10:17:02.670Z,8.53
2018-09-05T10:19:31.402Z,7.63
2018-09-05T10:22:00.107Z,8.03
2018-09-05T10:24:28.994Z,7.33
2018-09-05T10:26:57.806Z,8.23
2018-09-05T10:29:26.421Z,8.27
2018-09-05T10:31:55.094Z,7.40
2018-09-05T10:34:23.769Z,8.60
2018-09-05T10:36:52.433Z,7.47
2018-09-05T10:39:21.098Z,8.10
2018-09-05T10:41:49.770Z,7.47
2018-09-05T10:44:18.506Z,9.07
2018-09-05T10:46:47.158Z,9.00
2018-09-05T10:49:15.937Z,5.90
2018-09-05T10:51:49.885Z,6.73
2018-09-05T10:54:18.565Z,8.30
2018-09-05T10:56:47.208Z,6.13
2018-09-05T10:59:15.987Z,7.20
2018-09-05T11:01:44.644Z,6.07
2018-09-05T11:04:13.326Z,9.37
2018-09-05T11:06:41.990Z,8.70
2018-09-05T11:09:12.487Z,7.13
2018-09-05T11:11:41.212Z,7.30
2018-09-05T11:14:10.831Z,6.83
2018-09-05T11:16:39.971Z,7.40
2018-09-05T11:19:09.363Z,5.87
2018-09-05T11:21:38.312Z,6.87
2018-09-05T11:24:07.448Z,7.20
2018-09-05T11:26:36.169Z,6.90
2018-09-05T11:29:04.927Z,6.37
2018-09-05T11:31:33.549Z,9.97
2018-09-05T11:34:02.958Z,6.03
2018-09-05T11:36:31.618Z,8.73
2018-09-05T11:39:00.245Z,7.63
2018-09-05T11:41:28.919Z,11.27
2018-09-05T11:43:57.623Z,8.13
2018-09-05T11:46:26.306Z,6.43
2018-09-05T11:48:54.978Z,8.30
2018-09-05T11:51:23.718Z,8.13
2018-09-05T11:53:52.367Z,6.67
2018-09-05T11:56:21.067Z,7.03
2018-09-05T11:58:49.925Z,5.63
2018-09-05T12:01:18.637Z,7.03
2018-09-05T12:03:47.307Z,8.63
2018-09-05T12:06:16.016Z,9.03
2018-09-05T12:08:44.720Z,6.13
2018-09-05T12:11:13.360Z,6.87
2018-09-05T12:13:42.014Z,7.30
2018-09-05T12:16:10.764Z,7.10
2018-09-05T12:18:39.399Z,6.73
2018-09-05T12:21:08.129Z,8.50
2018-09-05T12:23:36.875Z,6.63
2018-09-05T12:26:05.548Z,10.50
2018-09-05T12:28:34.389Z,7.23
2018-09-05T12:31:04.276Z,6.83
2018-09-05T12:33:32.956Z,6.60
2018-09-05T12:36:01.649Z,9.63
2018-09-05T12:38:30.658Z,6.37
2018-09-05T12:40:59.421Z,6.10
2018-09-05T12:43:28.147Z,6.77
2018-09-05T12:45:56.894Z,5.40
2018-09-05T12:48:25.916Z,6.37
2018-09-05T12:50:55.329Z,5.65
2018-09-05T12:53:24.115Z,6.25
2018-09-05T12:55:58.128Z,6.47
2018-09-05T12:58:28.775Z,5.30
2018-09-05T13:00:57.511Z,5.95
2018-09-05T13:03:26.289Z,7.95
2018-09-05T13:05:55.002Z,8.70
2018-09-05T13:08:23.708Z,5.97
2018-09-05T13:10:52.633Z,5.83
2018-09-05T13:13:21.342Z,6.45
2018-09-05T13:15:50.077Z,5.50
2018-09-05T13:18:18.736Z,5.70
2018-09-05T13:20:47.614Z,5.80
2018-09-05T13:23:16.255Z,5.80
2018-09-05T13:25:44.905Z,5.42
2018-09-05T13:28:13.579Z,5.42
2018-09-05T13:30:42.309Z,5.05
2018-09-05T13:33:11.216Z,6.28
2018-09-05T13:35:39.889Z,8.88
2018-09-05T13:38:08.989Z,7.47
2018-09-05T13:40:37.802Z,7.12
2018-09-05T13:43:06.522Z,6.78
2018-09-05T13:45:35.168Z,7.08
2018-09-05T13:48:03.829Z,6.17
2018-09-05T13:50:34.419Z,7.10
2018-09-05T13:53:03.100Z,7.50
2018-09-05T13:55:32.007Z,7.08
2018-09-05T13:58:00.669Z,6.47
2018-09-05T14:00:29.685Z,8.50
2018-09-05T14:02:58.597Z,12.40
2018-09-05T14:05:27.527Z,7.93
2018-09-05T14:07:56.285Z,8.33
2018-09-05T14:10:25.053Z,8.23
2018-09-05T14:12:53.814Z,7.60
2018-09-05T14:15:22.460Z,8.80
2018-09-05T14:17:51.351Z,7.50
2018-09-05T14:20:20.753Z,7.00
2018-09-05T14:22:49.435Z,7.23
2018-09-05T14:25:18.076Z,11.00
2018-09-05T14:27:46.764Z,6.77
2018-09-05T14:30:15.464Z,7.10
2018-09-05T14:32:44.629Z,6.63
2018-09-05T14:35:13.446Z,9.47
2018-09-05T14:37:42.298Z,8.77
2018-09-05T14:40:11.256Z,8.10
2018-09-05T14:42:39.796Z,10.17
2018-09-05T14:45:08.836Z,10.33
2018-09-05T14:47:37.468Z,6.90
2018-09-05T14:50:06.579Z,8.77
2018-09-05T14:52:35.282Z,10.57
2018-09-05T14:55:04.035Z,7.07
2018-09-05T14:57:32.740Z,10.07
2018-09-05T15:00:01.421Z,7.87
2018-09-05T15:02:30.245Z,6.70
2018-09-05T15:04:59.395Z,7.50
2018-09-05T15:07:28.046Z,8.97
2018-09-05T15:10:08.493Z,8.77
2018-09-05T15:12:37.212Z,8.60
2018-09-05T15:15:06.022Z,8.50
2018-09-05T15:17:34.849Z,7.83
2018-09-05T15:20:03.524Z,8.37
2018-09-05T15:22:32.185Z,8.07
2018-09-05T15:25:00.836Z,6.70
2018-09-05T15:27:29.567Z,7.37
2018-09-05T15:29:58.435Z,8.57
2018-09-05T15:32:27.118Z,11.33
2018-09-05T15:34:55.768Z,10.03
2018-09-05T15:37:24.719Z,8.73
2018-09-05T15:39:53.633Z,7.40
2018-09-05T15:42:22.740Z,11.67
2018-09-05T15:44:51.429Z,7.57
2018-09-05T15:47:20.073Z,8.50
2018-09-05T15:49:48.770Z,8.07
2018-09-05T15:52:17.487Z,8.30
2018-09-05T15:54:46.169Z,8.03
2018-09-05T15:57:15.095Z,8.30
2018-09-05T15:59:43.794Z,6.43
2018-09-05T16:02:12.549Z,8.70
2018-09-05T16:04:41.245Z,8.43
2018-09-05T16:07:09.861Z,7.20
2018-09-05T16:09:38.912Z,9.87
2018-09-05T16:12:07.637Z,10.03
2018-09-05T16:14:36.268Z,7.70
2018-09-05T16:17:04.923Z,8.00
2018-09-05T16:19:33.558Z,6.70
2018-09-05T16:22:02.280Z,7.20
2018-09-05T16:24:30.963Z,5.93
2018-09-05T16:26:59.654Z,6.37
2018-09-05T16:29:28.306Z,6.57
2018-09-05T16:31:57.015Z,9.37
2018-09-05T16:34:25.711Z,12.53
2018-09-05T16:36:54.371Z,8.73
2018-09-05T16:39:23.229Z,7.33
2018-09-05T16:41:51.949Z,8.70
2018-09-05T16:44:20.652Z,9.60
2018-09-05T16:46:49.323Z,9.17
2018-09-05T16:49:18.223Z,15.63
2018-09-05T16:51:46.903Z,6.60
2018-09-05T16:54:15.644Z,7.77
2018-09-05T16:56:44.320Z,6.87
2018-09-05T16:59:13.183Z,10.30
2018-09-05T17:01:41.873Z,9.87
2018-09-05T17:04:10.554Z,7.33
2018-09-05T17:06:39.209Z,8.87
2018-09-05T17:09:11.099Z,6.37
2018-09-05T17:11:39.844Z,9.00
2018-09-05T17:14:08.527Z,7.43
2018-09-05T17:16:37.290Z,7.73
2018-09-05T17:19:06.099Z,6.40
2018-09-05T17:21:35.209Z,6.67
2018-09-05T17:24:03.935Z,8.87
2018-09-05T17:26:32.545Z,8.70
2018-09-05T17:29:01.179Z,6.03
2018-09-05T17:31:29.838Z,6.83
2018-09-05T17:33:58.583Z,8.47
2018-09-05T17:36:27.341Z,7.57
2018-09-05T17:38:56.022Z,7.07
2018-09-05T17:41:24.679Z,6.87
2018-09-05T17:43:53.464Z,9.50
2018-09-05T17:46:22.218Z,6.93
2018-09-05T17:48:51.080Z,7.33
2018-09-05T17:51:19.818Z,12.30
2018-09-05T17:53:48.671Z,7.77
2018-09-05T17:56:17.389Z,5.50
2018-09-05T17:58:46.166Z,5.47
2018-09-05T18:01:17.802Z,6.57
2018-09-05T18:03:46.586Z,7.70
2018-09-05T18:06:15.353Z,9.40
2018-09-05T18:08:45.340Z,7.67
2018-09-05T18:11:14.921Z,7.17
2018-09-05T18:13:43.697Z,7.43
2018-09-05T18:16:12.647Z,8.57
2018-09-05T18:18:41.367Z,8.33
2018-09-05T18:21:10.154Z,8.50
2018-09-05T18:23:38.828Z,6.13
2018-09-05T18:26:08.067Z,6.80
2018-09-05T18:28:37.589Z,8.20
2018-09-05T18:31:06.348Z,5.97
2018-09-05T18:33:35.068Z,8.17
2018-09-05T18:36:03.925Z,9.33
2018-09-05T18:38:32.617Z,7.50
2018-09-05T18:41:01.498Z,7.37
2018-09-05T18:43:30.178Z,6.87
2018-09-05T18:45:58.860Z,5.73
2018-09-05T18:48:27.577Z,6.67
2018-09-05T18:50:56.268Z,5.90
2018-09-05T18:53:24.902Z,10.93
2018-09-05T18:55:53.699Z,5.57
2018-09-05T18:58:23.389Z,6.97
2018-09-05T19:00:52.034Z,6.27
2018-09-05T19:03:20.697Z,9.07
2018-09-05T19:05:49.445Z,7.60
2018-09-05T19:08:18.161Z,6.53
2018-09-05T19:10:46.844Z,8.33
2018-09-05T19:13:15.579Z,5.17
2018-09-05T19:15:44.280Z,9.43
2018-09-05T19:18:12.960Z,8.90
2018-09-05T19:20:41.638Z,9.00
2018-09-05T19:23:12.423Z,7.13
2018-09-05T19:25:41.138Z,9.00
2018-09-05T19:28:09.813Z,10.70
2018-09-05T19:30:42.139Z,10.60
2018-09-05T19:33:10.892Z,9.03
2018-09-05T19:35:39.759Z,6.70
2018-09-05T19:38:08.521Z,8.33
2018-09-05T19:40:37.284Z,9.90
2018-09-05T19:43:06.250Z,8.87
2018-09-05T19:45:34.907Z,6.00
2018-09-05T19:48:03.805Z,6.73
2018-09-05T19:50:32.563Z,8.80
2018-09-05T19:53:01.213Z,12.73
2018-09-05T19:55:29.863Z,8.73
2018-09-05T19:57:58.572Z,7.33
2018-09-05T20:00:27.214Z,8.97
2018-09-05T20:02:55.872Z,6.13
2018-09-05T20:05:24.512Z,9.37
2018-09-05T20:07:53.235Z,5.73
2018-09-05T20:10:22.928Z,7.37
2018-09-05T20:12:51.587Z,8.23
2018-09-05T20:15:21.392Z,8.13
2018-09-05T20:17:50.016Z,8.60
2018-09-05T20:20:18.678Z,8.53
2018-09-05T20:22:47.375Z,9.80
2018-09-05T20:25:16.257Z,7.73
2018-09-05T20:27:44.969Z,6.50
2018-09-05T20:30:13.573Z,9.30
2018-09-05T20:32:42.208Z,8.07
2018-09-05T20:35:10.855Z,9.27
2018-09-05T20:37:39.760Z,7.00
2018-09-05T20:40:08.553Z,7.33
2018-09-05T20:42:37.184Z,7.67
2018-09-05T20:45:06.172Z,9.50
2018-09-05T20:47:34.964Z,8.33
2018-09-05T20:50:03.688Z,11.03
2018-09-05T20:52:32.353Z,12.27
2018-09-05T20:55:01.334Z,9.07
2018-09-05T20:57:30.000Z,7.90
2018-09-05T20:59:58.626Z,8.10
2018-09-05T21:02:27.472Z,8.37
2018-09-05T21:04:56.162Z,7.77
2018-09-05T21:07:25.176Z,8.27
2018-09-05T21:09:53.840Z,8.20
2018-09-05T21:12:22.455Z,7.43
2018-09-05T21:14:51.108Z,8.27
2018-09-05T21:17:19.942Z,9.07
2018-09-05T21:19:48.812Z,6.73
2018-09-05T21:22:17.886Z,8.30
2018-09-05T21:24:46.698Z,9.33
2018-09-05T21:27:15.370Z,11.17
2018-09-05T21:29:44.479Z,9.70
2018-09-05T21:32:13.113Z,7.93
2018-09-05T21:34:41.764Z,8.63
2018-09-05T21:37:10.394Z,10.97
2018-09-05T21:39:39.030Z,9.30
2018-09-05T21:42:07.685Z,7.70
2018-09-05T21:44:36.317Z,8.80
2018-09-05T21:47:05.002Z,10.87
2018-09-05T21:49:33.792Z,9.83
2018-09-05T21:52:02.488Z,11.00
2018-09-05T21:54:31.162Z,10.10
2018-09-05T21:56:59.775Z,7.40
2018-09-05T21:59:28.420Z,7.83
2018-09-05T22:01:57.068Z,9.97
2018-09-05T22:04:25.705Z,8.57
2018-09-05T22:06:54.551Z,9.57
2018-09-05T22:09:23.883Z,9.73
2018-09-05T22:11:52.506Z,8.93
2018-09-05T22:14:21.132Z,11.57
2018-09-05T22:16:49.787Z,9.33
2018-09-05T22:19:18.399Z,12.53
2018-09-05T22:21:46.996Z,9.90
2018-09-05T22:24:15.658Z,11.03
2018-09-05T22:26:44.262Z,11.60
2018-09-05T22:29:12.879Z,10.10
2018-09-05T22:31:41.587Z,10.07
2018-09-05T22:34:10.197Z,10.10
2018-09-05T22:36:39.162Z,9.40
2018-09-05T22:39:09.205Z,11.37
2018-09-05T22:41:37.857Z,11.30
2018-09-05T22:44:17.730Z,11.40
2018-09-05T22:46:57.582Z,9.83
2018-09-05T22:52:14.194Z,11.93
2018-09-05T22:56:04.791Z,14.40
2018-09-05T23:02:49.817Z,14.70
2018-09-05T23:07:34.661Z,13.20
2018-09-05T23:10:14.566Z,12.90
2018-09-05T23:12:54.364Z,12.40
2018-09-05T23:15:34.194Z,13.30
2018-09-05T23:18:13.959Z,11.73
2018-09-05T23:21:46.005Z,12.37
2018-09-05T23:24:14.675Z,12.30
2018-09-05T23:26:43.298Z,14.27
2018-09-05T23:29:11.951Z,14.67
2018-09-05T23:31:41.138Z,18.23
2018-09-05T23:34:09.758Z,14.63
2018-09-05T23:36:38.530Z,14.93
2018-09-05T23:39:09.379Z,14.97
2018-09-05T23:41:37.993Z,14.43
2018-09-05T23:44:06.763Z,15.57
2018-09-05T23:46:38.208Z,15.97
2018-09-05T23:49:10.021Z,16.23
2018-09-05T23:51:38.759Z,16.33
2018-09-05T23:54:07.478Z,15.80
2018-09-05T23:56:36.206Z,16.43
2018-09-05T23:59:06.371Z,18.13
